Terminal Aerodrome Forecast
Issued by NWS Amarillo, TX

Current Version | Previous Version | Text Only | Print | Product List | Glossary Off
Versions: 1 2 3 4 5 6 7 8 9 10 11 12 13 14 15 16 17 18

000
FTUS44 KAMA 311120
TAFDHT
TAF
KDHT 311120Z 3112/0112 18008KT P6SM SKC
     FM311500 19016G25KT P6SM SKC
     FM010000 16008KT P6SM SCT100=

USA.gov is the U.S. government's official web portal to all federal, state and local government web resources and services.